Jataizinho, Brazil
Current Conditions -  °F | °C
As of 11:38 PM on Tuesday 25 Nov 2014 (Local Time) from SBLO Reporting Station
Haze Haze  
Wind Chill: 70°   Ceiling: 200
Heat Index: 70°   Visibility: 2.5mi
Dew Point: 70°   Wind: 10mph
Humidity: 100%   Direction: 40°NE
Pressure: 29.8"   Gusts: NA
Location:  23.25°S, 50.97°W
Report Text: SBLO 260138Z 04009KT 4000 BR BKN002 21/21 Q1009
Loading
Personal Weather Stations






























Interactive Weather Map New forecast layout! Learn more

10-Day Weather Forecast

Advertisements
Track Severe Weather on mobile